Time;durP1;ratioP1;P1;durP2;ratioP2;P2;SDS_P1;SDS_P2;PMS_P1;PMS_P2;Temp;Humidity;BMP_temperature;BMP_pressure;BME280_temperature;BME280_humidity;BME280_pressure;Samples;Min_cycle;Max_cycle;Signal;HPM_P1;HPM_P2
2021/12/02 04:31:10;;;;;;;10.35;3.90;;;;;;;1.03;100.00;91010.63;6179585;22;20031;31
2021/12/02 04:33:36;;;;;;;8.05;4.22;;;;;;;1.02;100.00;91011.69;6299419;22;20137;-79
2021/12/02 04:36:03;;;;;;;11.88;5.43;;;;;;;1.03;100.00;91010.63;6279482;22;20023;-78
2021/12/02 04:38:29;;;;;;;6.03;3.22;;;;;;;1.06;100.00;91014.50;6304449;22;20014;-78
2021/12/02 04:40:56;;;;;;;9.20;3.95;;;;;;;1.09;100.00;91008.81;6288644;22;20042;-78
2021/12/02 04:43:22;;;;;;;7.93;3.88;;;;;;;1.13;100.00;91014.22;6336618;22;20049;-79
2021/12/02 04:45:48;;;;;;;11.77;4.65;;;;;;;1.12;100.00;91010.84;6335648;22;19995;-78
2021/12/02 04:48:15;;;;;;;10.90;5.22;;;;;;;1.10;100.00;91010.34;6308888;22;20014;-79
2021/12/02 04:50:41;;;;;;;11.13;5.55;;;;;;;1.14;99.73;91005.44;6337000;22;20422;-77
2021/12/02 04:53:06;;;;;;;10.23;5.07;;;;;;;1.12;99.97;91010.09;6336223;22;20152;-77
2021/12/02 04:55:32;;;;;;;8.75;4.45;;;;;;;1.13;99.78;91009.06;6336099;22;19994;-78
2021/12/02 04:57:58;;;;;;;11.00;3.42;;;;;;;1.13;100.00;91004.69;6336447;22;20402;-78
2021/12/02 05:00:24;;;;;;;6.82;3.33;;;;;;;1.12;99.79;91012.66;6337559;22;20355;-78
2021/12/02 05:02:51;;;;;;;6.40;3.45;;;;;;;1.11;99.88;91003.41;6337436;22;20097;-78
2021/12/02 05:05:16;;;;;;;6.05;3.65;;;;;;;1.10;100.00;91000.03;6309979;22;20475;-78
2021/12/02 05:07:42;;;;;;;7.22;3.70;;;;;;;1.08;100.00;90996.97;6337957;22;20011;-78
2021/12/02 05:10:08;;;;;;;6.38;3.20;;;;;;;1.10;99.97;90997.47;6339435;22;20072;-77
2021/12/02 05:12:34;;;;;;;5.57;3.00;;;;;;;1.10;99.70;90994.88;6339365;22;20068;-79
2021/12/02 05:15:00;;;;;;;6.75;3.35;;;;;;;1.08;100.00;90999.56;6311272;22;20385;-78
2021/12/02 05:17:26;;;;;;;20.98;8.50;;;;;;;1.13;99.74;91001.34;6337938;22;20342;-79
2021/12/02 05:19:51;;;;;;;19.42;8.57;;;;;;;1.10;100.00;91004.44;6337103;22;20010;-79
2021/12/02 05:22:17;;;;;;;23.00;9.95;;;;;;;1.09;100.00;91001.09;6337919;22;20523;-79
2021/12/02 05:24:43;;;;;;;27.63;10.38;;;;;;;1.06;100.00;91009.34;6338163;22;20073;-79
2021/12/02 05:27:08;;;;;;;54.05;23.65;;;;;;;1.04;100.00;91001.13;6309398;22;20018;-79
2021/12/02 05:29:34;;;;;;;58.50;23.42;;;;;;;1.02;100.00;90998.78;6338990;22;20074;-79
2021/12/02 05:32:00;;;;;;;40.42;18.92;;;;;;;1.01;100.00;90997.25;6307017;22;20373;-79
2021/12/02 05:34:26;;;;;;;10.90;5.22;;;;;;;0.99;99.93;91004.47;6280377;22;20045;-79
2021/12/02 05:36:53;;;;;;;5.90;3.08;;;;;;;0.99;99.61;91003.69;6305890;22;20011;-79
2021/12/02 05:39:18;;;;;;;7.53;3.47;;;;;;;0.97;99.64;90996.25;6307746;22;20434;-78
2021/12/02 05:41:45;;;;;;;6.50;3.10;;;;;;;0.98;99.91;90997.00;6306917;22;20018;-78
2021/12/02 05:44:11;;;;;;;4.53;2.50;;;;;;;1.03;99.91;90987.44;6304965;22;20441;-77
2021/12/02 05:46:36;;;;;;;5.63;2.80;;;;;;;1.01;99.37;90992.09;6254701;22;20011;-78
2021/12/02 05:49:03;;;;;;;5.00;2.78;;;;;;;1.04;99.66;90988.22;6305066;22;20007;-78
2021/12/02 05:51:28;;;;;;;5.95;3.03;;;;;;;1.00;99.68;90985.41;6307770;22;20050;-78
2021/12/02 05:53:54;;;;;;;5.30;2.92;;;;;;;1.01;99.63;90992.09;6304025;22;20003;-76
2021/12/02 05:56:20;;;;;;;9.07;3.33;;;;;;;1.00;99.67;90990.56;6306720;22;20069;-81
2021/12/02 05:58:45;;;;;;;6.25;2.90;;;;;;;0.98;99.62;90984.88;6306737;22;20266;-78
2021/12/02 06:01:11;;;;;;;5.00;2.35;;;;;;;1.07;98.63;90981.78;6282614;22;20019;-77
2021/12/02 06:03:38;;;;;;;7.68;3.53;;;;;;;1.00;99.15;90982.81;6308794;22;19999;-78
2021/12/02 06:06:05;;;;;;;4.85;2.75;;;;;;;0.98;99.43;90979.72;6309226;22;20391;-77
2021/12/02 06:08:31;;;;;;;5.60;2.58;;;;;;;0.97;99.32;90978.19;6309448;22;19999;-79
2021/12/02 06:10:56;;;;;;;4.50;2.45;;;;;;;0.98;99.23;90977.16;6309052;22;20077;-78
2021/12/02 06:13:22;;;;;;;5.45;2.92;;;;;;;0.99;98.79;90973.56;6309104;22;20023;-77
2021/12/02 06:15:47;;;;;;;5.88;2.72;;;;;;;1.05;98.76;90974.28;6310672;22;20015;-78
2021/12/02 06:18:13;;;;;;;4.35;2.60;;;;;;;1.09;98.69;90971.97;6310429;22;20007;-78
2021/12/02 06:20:39;;;;;;;5.97;2.95;;;;;;;1.02;98.73;90970.44;6308868;22;20017;-79
2021/12/02 06:23:04;;;;;;;8.93;4.40;;;;;;;0.99;99.12;90972.75;6310139;22;20333;-79
2021/12/02 06:27:56;;;;;;;6.25;2.70;;;;;;;0.95;99.34;90967.38;6307417;22;20078;-78
2021/12/02 06:30:24;;;;;;;8.23;4.18;;;;;;;0.95;99.35;90977.69;6280639;22;20018;-78
2021/12/02 06:32:50;;;;;;;6.43;3.28;;;;;;;0.94;99.54;90968.41;6308612;22;20446;-77
2021/12/02 06:35:16;;;;;;;6.72;3.20;;;;;;;0.97;99.33;90970.47;6307585;22;20015;-77
2021/12/02 06:37:42;;;;;;;6.05;2.92;;;;;;;0.99;98.97;90968.41;6306419;22;20031;-78
2021/12/02 06:40:09;;;;;;;7.80;3.85;;;;;;;0.96;99.42;90966.34;6307108;22;20460;-77
2021/12/02 06:42:35;;;;;;;9.40;3.70;;;;;;;0.94;99.35;90970.97;6305290;22;20022;-77
2021/12/02 06:45:01;;;;;;;6.07;2.90;;;;;;;0.95;99.31;90967.38;6305540;22;20026;-77
2021/12/02 06:47:31;;;;;;;6.72;3.15;;;;;;;0.93;99.55;90973.84;6278676;22;19991;-77
2021/12/02 06:50:00;;;;;;;5.53;2.53;;;;;;;0.94;99.38;90976.13;6306508;22;20015;-77
2021/12/02 06:52:27;;;;;;;5.75;3.17;;;;;;;0.92;98.92;90975.63;6278198;22;20003;-78
2021/12/02 06:54:56;;;;;;;6.95;3.13;;;;;;;0.96;98.94;90976.66;6306885;22;20036;-77
2021/12/02 06:57:22;;;;;;;5.68;3.13;;;;;;;0.96;99.05;90974.06;6278797;22;19999;-77
2021/12/02 06:59:48;;;;;;;5.45;2.97;;;;;;;0.93;99.38;90982.34;6307033;22;20046;-78
2021/12/02 07:02:13;;;;;;;8.70;4.43;;;;;;;0.94;99.44;90983.88;6282139;22;19999;-77
2021/12/02 07:04:39;;;;;;;7.40;3.58;;;;;;;0.94;98.83;90978.72;6308393;22;20011;-78
2021/12/02 07:07:05;;;;;;;6.43;3.65;;;;;;;0.93;98.66;90982.34;6304790;22;20003;-76
2021/12/02 07:09:30;;;;;;;8.88;3.88;;;;;;;0.90;98.98;90985.44;6304367;22;20010;-76
2021/12/02 07:11:56;;;;;;;6.55;3.40;;;;;;;0.90;98.79;90987.22;6304677;22;20010;-76
2021/12/02 07:14:24;;;;;;;5.68;2.90;;;;;;;0.90;98.53;90982.88;6276951;22;20097;-76
2021/12/02 07:16:49;;;;;;;6.82;3.17;;;;;;;0.91;98.17;90986.22;6302667;22;20011;-76
2021/12/02 07:19:16;;;;;;;4.10;2.40;;;;;;;0.90;98.26;90982.88;6303327;22;20377;-76
2021/12/02 07:21:42;;;;;;;4.95;2.50;;;;;;;0.90;98.22;90982.09;6302882;22;20003;-76
2021/12/02 07:24:10;;;;;;;5.93;3.08;;;;;;;0.89;98.29;90983.91;6304492;22;20442;-77
2021/12/02 07:26:41;;;;;;;5.57;2.90;;;;;;;0.93;98.16;90979.75;6303435;22;20534;-76
2021/12/02 07:29:22;;;;;;;5.65;3.00;;;;;;;0.98;97.82;90981.53;6303556;22;20145;-76
2021/12/02 07:31:50;;;;;;;5.15;3.05;;;;;;;1.02;97.51;90978.16;6303516;22;20091;-76
2021/12/02 07:34:17;;;;;;;5.70;3.05;;;;;;;1.04;97.37;90970.94;6303958;22;20320;-76
2021/12/02 07:36:44;;;;;;;6.28;2.60;;;;;;;1.10;97.28;90973.50;6303498;22;20011;-77
2021/12/02 07:39:10;;;;;;;6.97;2.97;;;;;;;1.11;97.24;90975.81;6277449;22;20039;-76
2021/12/02 07:41:39;;;;;;;4.78;2.75;;;;;;;1.18;96.87;90981.44;6303397;22;20019;-76
2021/12/02 07:44:05;;;;;;;5.88;3.47;;;;;;;1.23;96.69;90980.66;6303888;22;20056;-76
2021/12/02 07:46:32;;;;;;;5.65;2.90;;;;;;;1.30;96.11;90978.56;6276386;22;20046;-77
2021/12/02 07:48:58;;;;;;;9.20;3.33;;;;;;;1.41;95.48;90989.59;6303804;22;20504;-76
2021/12/02 07:51:29;;;;;;;7.50;3.10;;;;;;;1.50;95.31;90976.91;6276377;22;20019;-76
2021/12/02 07:53:58;;;;;;;6.35;3.10;;;;;;;1.59;94.78;90981.22;6303309;22;20011;-77
2021/12/02 07:56:24;;;;;;;5.88;3.00;;;;;;;1.62;94.77;90974.75;6301851;22;20430;-77
2021/12/02 07:58:50;;;;;;;4.90;2.90;;;;;;;1.69;94.07;90975.25;6303731;22;20061;-76
2021/12/02 08:01:17;;;;;;;5.00;2.88;;;;;;;1.73;94.06;90973.66;6303507;22;20002;-76
2021/12/02 08:03:47;;;;;;;6.80;3.05;;;;;;;2.05;92.90;90974.97;6303463;22;20007;-76
2021/12/02 08:06:14;;;;;;;7.03;2.80;;;;;;;2.33;91.59;90972.69;6302893;22;20011;-77
2021/12/02 08:08:41;;;;;;;4.78;2.72;;;;;;;2.25;91.72;90979.97;6276094;22;20003;-77
2021/12/02 08:11:08;;;;;;;7.47;2.80;;;;;;;2.18;91.81;90982.06;6303569;22;20035;-76
2021/12/02 08:13:33;;;;;;;5.63;2.65;;;;;;;2.45;91.07;90980.81;6276674;22;20010;-76
2021/12/02 08:16:01;;;;;;;6.40;3.33;;;;;;;2.72;90.01;90975.13;6303945;22;20089;-77
2021/12/02 08:18:27;;;;;;;5.50;2.95;;;;;;;4.75;84.95;90980.31;6250921;22;20098;-77
2021/12/02 08:20:54;;;;;;;7.68;3.00;;;;;;;6.31;77.05;90979.47;6304878;22;20042;-77
2021/12/02 08:23:19;;;;;;;6.13;3.38;;;;;;;6.75;73.50;90976.03;6304016;22;20015;-76
2021/12/02 08:25:45;;;;;;;4.60;2.58;;;;;;;6.53;73.13;90978.66;6305579;22;19999;-77
2021/12/02 08:28:11;;;;;;;5.90;2.95;;;;;;;6.22;73.53;90987.97;6277485;22;20011;-77
2021/12/02 08:30:37;;;;;;;5.20;2.50;;;;;;;5.94;74.80;90986.50;6304878;22;20029;-77
2021/12/02 08:33:06;;;;;;;5.75;3.10;;;;;;;6.11;74.29;90975.50;6323035;22;20406;-77
2021/12/02 08:35:33;;;;;;;4.70;2.28;;;;;;;6.10;73.80;90977.31;6336208;22;20006;-77
2021/12/02 08:38:03;;;;;;;4.93;2.60;;;;;;;6.26;72.47;90988.16;6335415;22;20366;-77
2021/12/02 08:40:36;;;;;;;5.30;2.60;;;;;;;6.10;73.07;90989.56;6309530;22;20025;-77
2021/12/02 08:43:08;;;;;;;4.68;2.53;;;;;;;6.39;71.70;90979.50;6309268;22;20010;-77
2021/12/02 08:45:36;;;;;;;5.18;3.05;;;;;;;7.00;70.75;90979.06;6338281;22;20006;-77
2021/12/02 08:48:04;;;;;;;6.88;3.10;;;;;;;8.37;65.95;90975.41;6338921;22;19991;-76
2021/12/02 08:50:31;;;;;;;6.70;3.38;;;;;;;9.42;64.13;90973.31;6311787;22;20668;-77
2021/12/02 08:52:58;;;;;;;5.72;3.30;;;;;;;10.11;60.61;90972.88;6312901;22;20060;-77
2021/12/02 08:55:24;;;;;;;5.13;2.80;;;;;;;10.23;59.63;90977.38;6341256;22;20015;-77
2021/12/02 08:57:51;;;;;;;6.22;2.80;;;;;;;10.34;60.06;90975.19;6340994;22;20386;-78
2021/12/02 09:00:20;;;;;;;5.88;2.90;;;;;;;11.03;58.13;90971.88;6288460;22;20469;-78
2021/12/02 09:02:46;;;;;;;5.63;3.05;;;;;;;10.51;57.61;90972.38;6342420;22;20077;-78
2021/12/02 09:05:12;;;;;;;7.30;3.95;;;;;;;9.79;57.75;90976.91;6342085;22;20015;-77
2021/12/02 09:07:38;;;;;;;9.73;4.82;;;;;;;8.98;62.16;90965.63;6341376;22;20057;-77
2021/12/02 09:10:06;;;;;;;7.60;4.18;;;;;;;7.29;66.22;90976.72;6312553;22;20353;-78
2021/12/02 09:12:31;;;;;;;8.98;4.00;;;;;;;6.31;69.93;90969.84;6339428;22;19999;-77
2021/12/02 09:14:57;;;;;;;9.07;4.13;;;;;;;6.21;70.84;90980.47;6339879;22;20064;-78
2021/12/02 09:17:22;;;;;;;8.75;5.20;;;;;;;5.15;75.19;90978.00;6336842;22;20009;-78
2021/12/02 09:19:48;;;;;;;8.80;4.90;;;;;;;4.97;75.83;90981.44;6338964;22;20049;-78
2021/12/02 09:22:14;;;;;;;7.75;4.03;;;;;;;5.07;75.76;90978.69;6338944;22;20642;-77
2021/12/02 09:24:40;;;;;;;7.60;4.13;;;;;;;5.21;75.63;90976.84;6338429;22;20064;-77
2021/12/02 09:27:06;;;;;;;10.40;4.45;;;;;;;5.34;75.28;90977.13;6339436;22;20003;-78
2021/12/02 09:29:31;;;;;;;15.75;7.40;;;;;;;4.80;76.75;90969.06;6310541;22;20013;-76
2021/12/02 09:31:58;;;;;;;8.98;4.07;;;;;;;4.83;78.08;90965.91;6338195;22;20007;-77
2021/12/02 09:34:26;;;;;;;14.27;4.05;;;;;;;4.65;77.82;90962.31;6337052;22;20014;-77
2021/12/02 09:36:51;;;;;;;6.88;3.83;;;;;;;4.53;78.97;90956.84;6338438;22;20072;-77
2021/12/02 09:39:17;;;;;;;6.35;3.50;;;;;;;4.27;79.94;90962.44;6338283;22;20014;-77
2021/12/02 09:41:45;;;;;;;8.20;4.05;;;;;;;4.09;82.24;90958.84;6310576;22;20005;-77
2021/12/02 09:44:12;;;;;;;9.50;4.20;;;;;;;4.09;81.92;90963.25;6338083;22;20063;-77
2021/12/02 09:46:40;;;;;;;7.22;3.83;;;;;;;4.16;81.28;90958.47;6339335;22;20308;-77
2021/12/02 09:49:08;;;;;;;6.65;3.67;;;;;;;4.24;81.03;90960.44;6338064;22;20021;-77
2021/12/02 09:51:45;;;;;;;14.13;4.13;;;;;;;4.49;80.02;90948.09;6310064;22;20009;-77
2021/12/02 09:54:17;;;;;;;8.60;3.92;;;;;;;4.67;79.98;90947.25;6337666;22;20007;-77
2021/12/02 09:56:46;;;;;;;9.00;4.55;;;;;;;4.64;80.56;90947.06;6310557;22;20018;-77
2021/12/02 09:59:25;;;;;;;12.57;4.68;;;;;;;5.21;81.63;90945.72;6337412;22;20006;-77
2021/12/02 10:01:58;;;;;;;7.40;4.10;;;;;;;6.16;74.65;90933.81;6338106;22;20492;-77
2021/12/02 10:04:25;;;;;;;5.78;3.50;;;;;;;7.33;72.52;90930.00;6338445;22;20146;-77
2021/12/02 10:07:04;;;;;;;6.95;3.88;;;;;;;7.44;69.51;90920.09;6310092;22;20030;-77
2021/12/02 10:09:52;;;;;;;8.15;4.20;;;;;;;7.39;68.90;90923.59;6337812;22;20076;-77
2021/12/02 10:12:21;;;;;;;6.93;4.07;;;;;;;6.93;70.26;90919.66;6336931;22;20018;-77
2021/12/02 10:14:57;;;;;;;8.15;3.63;;;;;;;6.49;70.51;90910.16;6337791;22;20188;-77
2021/12/02 10:20:33;;;;;;;5.60;3.08;;;;;;;6.54;71.29;90899.63;6337695;22;20007;-77
2021/12/02 10:23:23;;;;;;;7.45;3.55;;;;;;;5.89;71.69;90893.13;6311140;22;20444;-78
2021/12/02 10:25:58;;;;;;;5.40;3.03;;;;;;;6.19;70.95;90881.25;6337011;22;20358;-77
2021/12/02 10:28:26;;;;;;;5.78;3.28;;;;;;;5.97;71.67;90885.44;6310823;22;20003;-77
2021/12/02 10:31:04;;;;;;;7.68;4.28;;;;;;;5.61;73.34;90882.84;6336432;22;20176;-77
2021/12/02 10:33:40;;;;;;;11.07;5.50;;;;;;;6.06;74.95;90885.47;6336701;22;20023;-77
2021/12/02 10:36:09;;;;;;;8.02;4.50;;;;;;;5.99;74.73;90877.31;6338621;22;20345;-77
2021/12/02 10:38:36;;;;;;;8.98;4.90;;;;;;;5.33;78.39;90875.16;6309718;22;20062;-77
2021/12/02 10:41:08;;;;;;;11.35;6.00;;;;;;;5.00;79.72;90880.50;6338037;22;20011;-77
2021/12/02 10:43:34;;;;;;;12.07;4.78;;;;;;;4.77;80.95;90871.91;6337546;22;20033;-77
2021/12/02 10:46:20;;;;;;;13.00;6.68;;;;;;;4.99;81.18;90863.41;6335857;22;20030;-77
2021/12/02 10:48:51;;;;;;;17.98;7.45;;;;;;;5.17;80.92;90858.38;6283440;22;20013;-77
2021/12/02 10:51:37;;;;;;;12.30;6.47;;;;;;;6.03;79.04;90850.47;6336495;22;20011;-77
2021/12/02 10:54:13;;;;;;;10.43;5.50;;;;;;;5.82;77.51;90854.59;6337405;22;20003;-77
2021/12/02 10:56:40;;;;;;;15.82;5.53;;;;;;;5.96;75.76;90855.31;6337015;22;20065;-77
2021/12/02 10:59:30;;;;;;;12.27;5.80;;;;;;;5.49;78.79;90841.84;6337624;22;20030;-77
2021/12/02 11:02:01;;;;;;;12.57;7.50;;;;;;;5.03;80.58;90845.44;6311776;22;20077;-77
2021/12/02 11:04:35;;;;;;;12.73;7.38;;;;;;;4.52;82.83;90833.50;6310693;22;20323;-77
2021/12/02 11:07:01;;;;;;;10.52;5.75;;;;;;;4.21;83.87;90828.13;6340605;22;20007;-77
2021/12/02 11:09:33;;;;;;;11.35;5.75;;;;;;;4.43;83.27;90830.06;6337692;22;20033;-77
2021/12/02 11:12:20;;;;;;;11.75;5.93;;;;;;;5.09;81.16;90809.78;6336541;22;20033;-77
2021/12/02 11:14:55;;;;;;;9.50;4.97;;;;;;;6.38;77.75;90816.09;6309582;22;20145;-77
2021/12/02 11:17:23;;;;;;;10.65;5.18;;;;;;;7.82;74.00;90815.31;6339708;22;20023;-77
2021/12/02 11:19:50;;;;;;;5.72;3.65;;;;;;;6.77;73.31;90806.69;6312688;22;19999;-77
2021/12/02 11:22:19;;;;;;;13.38;7.07;;;;;;;6.35;76.04;90814.06;6309433;22;20015;-77
2021/12/02 11:24:47;;;;;;;8.77;5.18;;;;;;;6.50;74.35;90805.09;6340160;22;20020;-78
2021/12/02 11:27:13;;;;;;;8.55;4.40;;;;;;;6.55;73.78;90807.56;6339636;22;20022;-78
2021/12/02 11:30:08;;;;;;;7.95;4.53;;;;;;;7.24;72.33;90796.50;6312824;22;19994;-77
2021/12/02 11:32:46;;;;;;;9.25;5.03;;;;;;;8.48;68.68;90788.91;6274152;22;20022;-77
2021/12/02 11:35:16;;;;;;;9.35;4.32;;;;;;;9.18;64.01;90781.44;6308598;22;20011;-79
2021/12/02 11:37:48;;;;;;;8.35;4.47;;;;;;;9.48;64.58;90786.56;6308592;22;20011;-78
2021/12/02 11:40:25;;;;;;;9.60;4.78;;;;;;;10.08;62.36;90777.41;6152971;22;20020;-79
2021/12/02 11:42:52;;;;;;;9.98;5.22;;;;;;;9.27;61.06;90776.91;6309721;22;20011;-78
2021/12/02 11:45:22;;;;;;;9.75;4.97;;;;;;;8.34;64.51;90776.81;6310535;22;20014;-78
2021/12/02 11:47:48;;;;;;;12.65;6.03;;;;;;;7.27;68.03;90786.25;6309585;22;20029;-78
2021/12/02 11:50:16;;;;;;;9.70;5.50;;;;;;;7.38;68.92;90784.09;6307380;22;20025;-78
2021/12/02 11:52:42;;;;;;;14.15;7.05;;;;;;;7.77;67.52;90769.34;6310901;22;20431;-78
2021/12/02 11:55:16;;;;;;;8.65;4.60;;;;;;;7.01;69.30;90764.66;6284269;22;20022;-78
2021/12/02 11:57:42;;;;;;;11.10;5.53;;;;;;;7.61;68.67;90761.25;6306691;22;20442;-78
2021/12/02 12:00:11;;;;;;;10.02;4.05;;;;;;;7.43;67.42;90768.31;6309541;22;20128;-78
2021/12/02 12:03:14;;;;;;;6.38;3.60;;;;;;;6.81;69.45;90761.56;6282716;22;20023;-78
2021/12/02 12:05:45;;;;;;;9.93;4.80;;;;;;;7.05;69.54;90762.97;6287036;22;20370;-78
2021/12/02 12:08:29;;;;;;;7.40;4.22;;;;;;;7.87;68.15;90760.41;6310981;22;20035;-78
2021/12/02 12:10:55;;;;;;;6.97;3.97;;;;;;;7.18;68.28;90756.06;6308738;22;20510;-78
2021/12/02 12:13:23;;;;;;;9.30;4.55;;;;;;;7.46;67.90;90743.50;6307375;22;19995;-78
2021/12/02 12:15:58;;;;;;;8.10;4.18;;;;;;;7.54;68.10;90744.56;6282628;22;20016;-78
2021/12/02 12:18:26;;;;;;;6.60;3.60;;;;;;;7.36;68.08;90744.56;6310084;22;20007;-78
2021/12/02 12:21:08;;;;;;;8.38;4.75;;;;;;;6.67;70.46;90747.94;6309476;22;20449;-78
2021/12/02 12:23:46;;;;;;;3.13;1.83;;;;;;;6.25;71.27;90740.50;6311279;22;20100;-78
2021/12/02 12:26:35;;;;;;;5.57;3.17;;;;;;;5.81;73.45;90734.38;6312317;22;20014;-77
2021/12/02 12:29:06;;;;;;;10.40;4.93;;;;;;;6.57;72.56;90738.59;6310927;22;20007;-78
2021/12/02 12:32:01;;;;;;;7.28;4.35;;;;;;;7.91;67.64;90730.06;6311288;22;20411;-78
2021/12/02 12:34:30;;;;;;;8.73;4.53;;;;;;;8.45;65.53;90722.50;6311923;22;20011;-77
2021/12/02 12:37:28;;;;;;;6.60;3.60;;;;;;;9.47;63.34;90727.59;6178638;22;20066;-77
2021/12/02 12:40:15;;;;;;;7.13;2.92;;;;;;;9.91;60.45;90718.25;6289634;22;20022;-78
2021/12/02 12:42:45;;;;;;;6.25;3.60;;;;;;;9.73;61.71;90717.66;6311735;22;20034;-77
2021/12/02 12:45:34;;;;;;;6.22;3.05;;;;;;;10.23;58.98;90715.88;6311429;22;20441;-77
2021/12/02 12:48:02;;;;;;;5.82;3.28;;;;;;;10.07;59.71;90718.38;6178745;22;20015;-78
2021/12/02 12:50:36;;;;;;;5.75;2.88;;;;;;;10.28;58.59;90714.91;6185444;22;20005;-77
2021/12/02 12:53:04;;;;;;;5.93;2.95;;;;;;;10.59;57.16;90715.13;6184882;23;20047;-76
2021/12/02 12:55:33;;;;;;;9.00;3.75;;;;;;;9.14;61.41;90715.28;6184295;23;20005;-78
2021/12/02 12:58:11;;;;;;;9.00;3.30;;;;;;;8.33;63.35;90711.94;6183809;23;20454;-77
2021/12/02 13:00:49;;;;;;;5.32;3.15;;;;;;;7.96;64.00;90705.69;6184445;22;20013;-78
2021/12/02 13:03:21;;;;;;;7.13;2.80;;;;;;;7.85;64.41;90700.81;6157025;23;20091;-77
2021/12/02 13:05:54;;;;;;;;;;;;;;;8.23;64.11;90696.66;6157460;23;20249;-78
2021/12/02 13:08:22;;;;;;;5.68;3.15;;;;;;;8.03;64.55;90693.69;6183104;22;19908;-78
2021/12/02 13:10:50;;;;;;;6.60;3.50;;;;;;;8.42;63.78;90697.06;6157147;22;20428;-78
2021/12/02 13:13:34;;;;;;;6.93;3.40;;;;;;;8.13;63.92;90695.94;6184573;23;20013;-77
2021/12/02 13:16:16;;;;;;;7.28;3.67;;;;;;;8.45;62.78;90691.22;6157195;23;20037;-78
2021/12/02 13:18:45;;;;;;;8.48;4.07;;;;;;;8.74;61.06;90682.59;6183771;23;20013;-77
2021/12/02 13:21:33;;;;;;;8.20;3.72;;;;;;;8.47;62.54;90672.66;6184305;22;20047;-77
2021/12/02 13:24:10;;;;;;;6.88;3.60;;;;;;;8.50;61.86;90670.16;6157270;23;20020;-78
2021/12/02 13:26:40;;;;;;;6.15;3.40;;;;;;;8.35;62.77;90670.69;6183811;23;20038;-77
2021/12/02 13:29:07;;;;;;;5.53;2.67;;;;;;;7.54;65.08;90667.19;6184234;23;20199;-77
2021/12/02 13:31:34;;;;;;;7.65;3.75;;;;;;;7.70;64.99;90665.63;6183630;22;20026;-78
2021/12/02 13:34:15;;;;;;;7.40;4.03;;;;;;;7.91;65.25;90664.94;6288587;22;20025;-78
2021/12/02 13:37:01;;;;;;;7.80;3.42;;;;;;;8.57;62.57;90663.69;6341510;22;20007;-78
2021/12/02 13:39:45;;;;;;;5.50;3.00;;;;;;;9.14;61.04;90657.84;6314835;22;20007;-78
2021/12/02 13:42:14;;;;;;;5.65;3.17;;;;;;;9.33;60.09;90658.13;6342125;22;20017;-77
2021/12/02 13:44:45;;;;;;;6.43;3.47;;;;;;;9.03;60.58;90646.28;6342188;22;20026;-78
2021/12/02 13:47:19;;;;;;;9.38;3.60;;;;;;;9.52;60.38;90652.41;6343856;22;20006;-76
2021/12/02 13:49:50;;;;;;;5.72;3.40;;;;;;;9.90;59.39;90645.38;6338675;22;20073;-76
2021/12/02 13:52:23;;;;;;;7.18;3.20;;;;;;;10.07;58.49;90649.66;6336032;22;20011;-76
2021/12/02 13:54:59;;;;;;;5.88;2.85;;;;;;;10.14;57.91;90642.03;6336318;22;20045;-76
2021/12/02 13:57:27;;;;;;;5.43;2.80;;;;;;;10.17;58.01;90634.25;6307902;22;20010;-76
2021/12/02 13:59:53;;;;;;;8.00;3.10;;;;;;;9.62;57.97;90635.56;6335940;22;19998;-78
2021/12/02 14:02:21;;;;;;;6.53;3.10;;;;;;;9.73;58.64;90628.06;6338009;22;20022;-78
2021/12/02 14:04:48;;;;;;;4.90;2.80;;;;;;;9.87;58.29;90631.13;6311696;22;19995;-78
2021/12/02 14:07:20;;;;;;;8.00;4.65;;;;;;;9.75;57.62;90631.88;6311795;22;20010;-78
2021/12/02 14:09:47;;;;;;;;;;;;;;;9.46;58.52;90630.22;6339699;22;20085;-77
2021/12/02 14:12:13;;;;;;;7.60;3.97;;;;;;;9.48;60.10;90635.09;6339053;22;20297;-78
2021/12/02 14:14:54;;;;;;;9.55;5.45;;;;;;;9.40;58.47;90633.34;6339219;22;20511;-78
2021/12/02 14:17:20;;;;;;;12.90;5.45;;;;;;;9.41;59.26;90635.63;6339150;22;20067;-78
2021/12/02 14:20:12;;;;;;;8.80;3.25;;;;;;;9.59;60.25;90625.75;6307269;22;20035;-78
2021/12/02 14:22:41;;;;;;;6.22;3.60;;;;;;;9.75;60.46;90636.34;6331472;22;20019;-78
2021/12/02 14:25:09;;;;;;;4.70;2.80;;;;;;;9.88;60.01;90624.03;6337592;22;20052;-78
2021/12/02 14:27:35;;;;;;;5.18;2.75;;;;;;;9.95;60.21;90632.88;6338481;22;20011;-77
2021/12/02 14:30:08;;;;;;;7.97;2.80;;;;;;;10.08;58.76;90636.22;6336419;22;20003;-78
2021/12/02 14:32:34;;;;;;;6.10;3.00;;;;;;;10.10;58.85;90631.44;6338261;22;20017;-77
2021/12/02 14:35:10;;;;;;;8.57;3.05;;;;;;;10.18;57.75;90630.56;6337709;22;20353;-78
2021/12/02 14:37:37;;;;;;;6.32;3.25;;;;;;;10.19;58.70;90628.72;6311096;22;20018;-79
2021/12/02 14:40:04;;;;;;;8.88;3.10;;;;;;;10.10;59.07;90634.06;6337556;22;20005;-77
2021/12/02 14:42:29;;;;;;;4.75;2.70;;;;;;;10.04;58.96;90632.75;6339008;22;20384;-78
2021/12/02 14:44:55;;;;;;;7.00;3.28;;;;;;;9.79;59.70;90629.38;6338758;22;20002;-78
2021/12/02 14:47:21;;;;;;;7.35;3.33;;;;;;;9.18;60.32;90617.72;6312219;22;20048;-78
2021/12/02 14:49:48;;;;;;;5.40;2.83;;;;;;;8.56;61.42;90626.41;6338272;22;19995;-79
2021/12/02 14:52:29;;;;;;;5.68;2.95;;;;;;;8.01;63.66;90624.72;6285138;22;20011;-79
2021/12/02 14:55:09;;;;;;;4.70;2.72;;;;;;;7.38;66.04;90621.94;6339226;22;20011;-77
2021/12/02 14:57:41;;;;;;;5.90;2.80;;;;;;;6.91;67.51;90619.28;6312317;22;20042;-78
2021/12/02 15:00:08;;;;;;;6.17;2.93;;;;;;;6.62;68.70;90615.47;6313416;22;20098;-79
2021/12/02 15:02:44;;;;;;;6.53;3.22;;;;;;;6.32;69.93;90623.13;6337192;22;20057;-78
2021/12/02 15:05:19;;;;;;;6.43;3.00;;;;;;;6.03;71.31;90631.50;6338830;22;20022;-78
2021/12/02 15:07:46;;;;;;;5.93;2.88;;;;;;;5.75;71.93;90630.97;6312340;22;20082;-78
2021/12/02 15:10:25;;;;;;;6.75;3.10;;;;;;;5.53;72.51;90627.34;6311055;22;20006;-79
2021/12/02 15:12:54;;;;;;;5.45;2.80;;;;;;;5.40;73.38;90631.59;6337260;22;20025;-78
2021/12/02 15:15:22;;;;;;;3.92;2.28;;;;;;;5.22;74.02;90630.75;6337921;22;20069;-80
2021/12/02 15:17:51;;;;;;;5.25;2.67;;;;;;;5.03;74.35;90632.03;6336988;22;20018;-78
2021/12/02 15:20:26;;;;;;;6.13;2.40;;;;;;;4.88;74.76;90633.16;6336428;22;19999;-78
2021/12/02 15:22:59;;;;;;;5.38;2.70;;;;;;;4.70;75.27;90634.88;6337842;22;20007;-78
2021/12/02 15:25:39;;;;;;;4.88;2.42;;;;;;;4.46;76.02;90635.13;6337558;22;20438;-78
2021/12/02 15:28:07;;;;;;;6.50;2.72;;;;;;;4.35;76.68;90626.84;6337673;22;20364;-78
2021/12/02 15:30:38;;;;;;;6.72;3.00;;;;;;;4.09;77.97;90634.38;6310786;22;20476;-78
2021/12/02 15:33:05;;;;;;;5.03;2.80;;;;;;;4.05;78.26;90631.59;6336767;22;20018;-78
2021/12/02 15:35:33;;;;;;;6.05;3.17;;;;;;;3.92;78.79;90638.34;6338328;22;20018;-78
2021/12/02 15:38:01;;;;;;;5.57;3.20;;;;;;;3.85;79.30;90638.00;6310311;22;20011;-78
2021/12/02 15:40:28;;;;;;;5.80;3.17;;;;;;;3.78;79.17;90635.00;6336755;22;20351;-78
2021/12/02 15:42:57;;;;;;;7.05;3.28;;;;;;;3.70;79.53;90631.28;6338496;22;20519;-77
2021/12/02 15:45:22;;;;;;;8.60;3.53;;;;;;;3.66;79.08;90629.56;6337795;22;20325;-78
2021/12/02 15:47:48;;;;;;;7.22;3.65;;;;;;;3.54;79.10;90633.41;6337934;22;20017;-77
2021/12/02 15:50:15;;;;;;;6.78;3.38;;;;;;;3.42;80.45;90635.69;6337847;22;20093;-78
2021/12/02 15:52:46;;;;;;;7.55;3.45;;;;;;;3.36;80.84;90626.50;6338498;22;20010;-77
2021/12/02 15:55:12;;;;;;;5.55;3.25;;;;;;;3.24;81.18;90631.38;6310628;22;20091;-77
2021/12/02 15:57:39;;;;;;;7.10;3.45;;;;;;;3.27;81.25;90638.56;6336268;22;20038;-78
2021/12/02 16:00:13;;;;;;;6.65;3.55;;;;;;;3.17;81.75;90638.75;6310950;22;20011;-77
2021/12/02 16:02:45;;;;;;;7.85;3.30;;;;;;;3.11;82.26;90636.25;6337283;22;20015;-78
2021/12/02 16:05:19;;;;;;;5.63;3.05;;;;;;;2.93;83.89;90642.25;6335942;22;20015;-78
2021/12/02 16:07:52;;;;;;;8.30;3.55;;;;;;;2.76;82.97;90644.59;6310347;22;20010;-78
2021/12/02 16:10:38;;;;;;;6.57;3.50;;;;;;;2.64;83.79;90655.38;6311120;22;20014;-78
2021/12/02 16:13:04;;;;;;;7.38;3.80;;;;;;;2.56;83.72;90658.59;6337948;22;20037;-78
2021/12/02 16:15:30;;;;;;;6.32;3.05;;;;;;;2.49;83.88;90661.53;6310710;22;20007;-77
2021/12/02 16:17:56;;;;;;;6.47;3.42;;;;;;;2.41;83.82;90660.34;6338513;22;20323;-79
2021/12/02 16:20:21;;;;;;;6.93;3.65;;;;;;;2.35;83.49;90671.03;6338103;22;20010;-78
2021/12/02 16:22:47;;;;;;;7.10;4.45;;;;;;;2.29;83.46;90673.66;6338415;22;20425;-79
2021/12/02 16:25:14;;;;;;;9.98;5.43;;;;;;;2.23;82.96;90672.22;6340456;22;19999;-79
2021/12/02 16:27:40;;;;;;;8.25;4.82;;;;;;;2.14;82.70;90681.66;6286649;22;20014;-78